Архив погоды в Грозном

Метеограмма Грозный
Вторник, 26 Марта
Время местн. Темп Ветер Видим Явления Облачность нижн/средн/верх Атм. давл. Влжн Точка росы ВНГО R Сост. почвы Tg s
Напр Скр Прв ур.ст ур.м изм
18:00 +8.8° В 4 - 20 км - ясно 737 760 +0.2 64% +2.4° более 2.5 км - - - -
15:00 +11.8° В 4 - 20 км - ясно 737 760 -1.4 47% +0.8° более 2.5 км - - - -
12:00 +10° В 2 - 20 км - ясно 738 761 -1.3 47% -0.9° более 2.5 км - - - -
09:00 +5.2° З 1 - 20 км - ясно 740 763 -0.5 68% -0.3° более 2.5 км - - - -
06:00 -1.7° Ю,Ю-В 1 - 20 км - ясно 740 764 +0.2 89% -3.3° более 2.5 км - Замерзшая - -
03:00 -0.8° В 1 - 10 км - ясно 740 764 -0.2 86% -2.9° более 2.5 км - - - -
00:00 +1.6° В,Ю-В 1 - 10 км - ясно 740 764 -0.2 80% -1.5° более 2.5 км - - - -
Понедельник, 25 Марта
Время местн. Темп Ветер Видим Явления Облачность нижн/средн/верх Атм. давл. Влжн Точка росы ВНГО R Сост. почвы Tg s
Напр Скр Прв ур.ст ур.м изм
21:00 +4° В,Ю-В 1 - 10 км - ясно 740 764 +0.5 70% -0.9° более 2.5 км - - - -
18:00 +8.5° В 1 - 20 км - облачно с прояснениями 740 763 +0.2 45% -2.8° более 2.5 км - - - -
15:00 +9.9° З 2 - 20 км - переменная облачность 740 763 -0.8 43% -2.1° - - - - -
12:00 +8.6° З 3 - 20 км - облачно с прояснениями 740 764 -1.7 50% -1.3° 1.5 км - - - -
09:00 +5.3° З 2 - 20 км - облачно с прояснениями 742 766 +0.6 57% -2.5° 1.5 км - - - -
06:00 +2.5° З 2 - 20 км - облачно 741 765 +0.5 79% -0.8° 1.5 км - Влажная (без луж) - -
03:00 +2.3° Ю-З 1 - 10 км - облачно 741 765 +0.8 87% +0.4° 1 км - - - -
00:00 +2.5° Ю 1 - 10 км - облачно 740 764 0 77% -1.1° 1 км - - - -
Воскресенье, 24 Марта
Время местн. Темп Ветер Видим Явления Облачность нижн/средн/верх Атм. давл. Влжн Точка росы ВНГО R Сост. почвы Tg s
Напр Скр Прв ур.ст ур.м изм
21:00 +2.6° Ю,Ю-З 3 - 10 км - облачно 740 764 +0.9 79% -0.7° 1 км - - - -
18:00 +2.8° З,С-З 2 - 20 км - облачно 739 763 -0.2 72% -1.7° 1.5 км - - - -
15:00 +3.7° З,С-З 3 - 20 км небо без изменений {дождь} облачно 739 763 -0.5 77% 1.5 км - - - -
12:00 +3.4° З,С-З 4 - 10 км дождь облачно 740 763 -0.2 90% +1.9° 1 км - - - -
09:00 +2.5° З,С-З 3 - 4 км слабый непрерывный дождь облачно 740 764 +1 91% +1.2° - - - - -
06:00 +2° З 1 - 4 км слабый дождь с перерывами облачно 739 763 +0.4 94% +1.2° - - Влажная (без луж) - -
03:00 +2.8° З 3 - 10 км - облачно 739 762 +0.7 92% +1.7° 1 км - - - -
00:00 +3.2° З,С-З 4 - 10 км - облачно 738 762 +0.6 88% +1.4° 1 км - - - -
Суббота, 23 Марта
Время местн. Темп Ветер Видим Явления Облачность нижн/средн/верх Атм. давл. Влжн Точка росы ВНГО R Сост. почвы Tg s
Напр Скр Прв ур.ст ур.м изм
21:00 +5.7° З 4 - 10 км - облачно 737 761 +2.2 80% +2.5° 1 км - - - -
18:00 +8.6° В 3 - 20 км - переменная облачность 735 758 +0.9 68% +3° - - - - -
15:00 +13.4° В 4 - 20 км - ясно 734 757 -2.1 44% +1.3° более 2.5 км - - - -